Terminal Aerodrome Forecast
Issued by NWS

Home | Current Version | Previous Version | Text Only | Print | Product List | Glossary On
Versions: 1 2 3 4 5 6 7 8 9 10 11 12 13 14 15 16
000
FTUS45 KVEF 042320
TAFEED
TAF
KEED 042320Z 0500/0524 17010G18KT P6SM VCTS SCT100CB
      TEMPO 0500/0503 VRB15G25KT -TSRA BKN100CB
     FM050400 21009KT P6SM SCT120 BKN200
     FM051400 21012G20KT P6SM FEW120 SCT200=

USA.gov is the U.S. government's official web portal to all federal, state and local government web resources and services.